sensor_id;sensor_type;location;lat;lon;timestamp;P1;durP1;ratioP1;P2;durP2;ratioP2
31730;SDS011;18310;55.586;12.286;2022-07-29T00:03:04;5.88;;;1.92;;
31730;SDS011;18310;55.586;12.286;2022-07-29T00:06:08;7.90;;;1.90;;
31730;SDS011;18310;55.586;12.286;2022-07-29T00:09:12;6.35;;;2.10;;
31730;SDS011;18310;55.586;12.286;2022-07-29T00:12:16;5.65;;;1.75;;
31730;SDS011;18310;55.586;12.286;2022-07-29T00:15:26;4.57;;;1.77;;
31730;SDS011;18310;55.586;12.286;2022-07-29T00:18:29;7.30;;;2.30;;
31730;SDS011;18310;55.586;12.286;2022-07-29T00:21:34;5.45;;;2.30;;
31730;SDS011;18310;55.586;12.286;2022-07-29T00:24:37;4.35;;;1.90;;
31730;SDS011;18310;55.586;12.286;2022-07-29T00:27:41;6.30;;;2.17;;
31730;SDS011;18310;55.586;12.286;2022-07-29T00:30:44;3.75;;;1.90;;
31730;SDS011;18310;55.586;12.286;2022-07-29T00:33:47;5.40;;;2.00;;
31730;SDS011;18310;55.586;12.286;2022-07-29T00:36:52;4.13;;;2.20;;
31730;SDS011;18310;55.586;12.286;2022-07-29T00:39:54;6.88;;;2.53;;
31730;SDS011;18310;55.586;12.286;2022-07-29T00:42:58;4.18;;;2.05;;
31730;SDS011;18310;55.586;12.286;2022-07-29T00:46:03;5.13;;;2.38;;
31730;SDS011;18310;55.586;12.286;2022-07-29T00:49:06;5.50;;;2.17;;
31730;SDS011;18310;55.586;12.286;2022-07-29T00:52:11;7.22;;;2.42;;
31730;SDS011;18310;55.586;12.286;2022-07-29T00:55:17;5.53;;;2.17;;
31730;SDS011;18310;55.586;12.286;2022-07-29T00:58:21;7.43;;;1.80;;
31730;SDS011;18310;55.586;12.286;2022-07-29T01:01:25;6.45;;;2.13;;
31730;SDS011;18310;55.586;12.286;2022-07-29T01:04:30;4.82;;;1.98;;
31730;SDS011;18310;55.586;12.286;2022-07-29T01:07:35;5.18;;;1.98;;
31730;SDS011;18310;55.586;12.286;2022-07-29T01:10:39;6.15;;;2.10;;
31730;SDS011;18310;55.586;12.286;2022-07-29T01:13:46;5.63;;;1.90;;
31730;SDS011;18310;55.586;12.286;2022-07-29T01:16:51;5.78;;;2.20;;
31730;SDS011;18310;55.586;12.286;2022-07-29T01:20:06;6.97;;;2.10;;
31730;SDS011;18310;55.586;12.286;2022-07-29T01:23:25;6.72;;;2.13;;
31730;SDS011;18310;55.586;12.286;2022-07-29T01:27:08;5.35;;;1.77;;
31730;SDS011;18310;55.586;12.286;2022-07-29T01:30:36;4.45;;;1.98;;
31730;SDS011;18310;55.586;12.286;2022-07-29T01:33:45;6.30;;;2.20;;
31730;SDS011;18310;55.586;12.286;2022-07-29T01:36:55;8.32;;;2.60;;
31730;SDS011;18310;55.586;12.286;2022-07-29T01:40:09;8.37;;;2.00;;
31730;SDS011;18310;55.586;12.286;2022-07-29T01:43:23;9.95;;;1.92;;
31730;SDS011;18310;55.586;12.286;2022-07-29T01:46:36;4.55;;;2.08;;
31730;SDS011;18310;55.586;12.286;2022-07-29T01:49:47;3.90;;;1.83;;
31730;SDS011;18310;55.586;12.286;2022-07-29T01:52:56;4.38;;;2.08;;
31730;SDS011;18310;55.586;12.286;2022-07-29T01:56:04;5.13;;;2.10;;
31730;SDS011;18310;55.586;12.286;2022-07-29T01:59:12;5.10;;;2.15;;
31730;SDS011;18310;55.586;12.286;2022-07-29T02:02:19;4.28;;;2.10;;
31730;SDS011;18310;55.586;12.286;2022-07-29T02:05:24;4.85;;;2.30;;
31730;SDS011;18310;55.586;12.286;2022-07-29T02:08:31;4.10;;;2.17;;
31730;SDS011;18310;55.586;12.286;2022-07-29T02:11:36;5.43;;;2.25;;
31730;SDS011;18310;55.586;12.286;2022-07-29T02:14:43;7.07;;;2.00;;
31730;SDS011;18310;55.586;12.286;2022-07-29T02:17:53;5.10;;;2.22;;
31730;SDS011;18310;55.586;12.286;2022-07-29T02:21:02;5.80;;;1.90;;
31730;SDS011;18310;55.586;12.286;2022-07-29T02:24:15;6.85;;;2.10;;
31730;SDS011;18310;55.586;12.286;2022-07-29T02:27:20;5.32;;;1.90;;
31730;SDS011;18310;55.586;12.286;2022-07-29T02:30:27;5.93;;;1.95;;
31730;SDS011;18310;55.586;12.286;2022-07-29T02:33:34;6.05;;;2.20;;
31730;SDS011;18310;55.586;12.286;2022-07-29T02:36:40;5.07;;;2.10;;
31730;SDS011;18310;55.586;12.286;2022-07-29T02:39:49;3.95;;;1.90;;
31730;SDS011;18310;55.586;12.286;2022-07-29T02:42:56;3.97;;;1.77;;
31730;SDS011;18310;55.586;12.286;2022-07-29T02:49:31;6.25;;;1.70;;
31730;SDS011;18310;55.586;12.286;2022-07-29T02:52:41;7.28;;;1.83;;
31730;SDS011;18310;55.586;12.286;2022-07-29T02:55:51;6.38;;;2.10;;
31730;SDS011;18310;55.586;12.286;2022-07-29T02:58:59;4.25;;;1.70;;
31730;SDS011;18310;55.586;12.286;2022-07-29T03:02:08;5.35;;;1.77;;
31730;SDS011;18310;55.586;12.286;2022-07-29T03:05:17;4.75;;;2.08;;
31730;SDS011;18310;55.586;12.286;2022-07-29T03:08:23;4.60;;;2.03;;
31730;SDS011;18310;55.586;12.286;2022-07-29T03:11:28;8.43;;;2.17;;
31730;SDS011;18310;55.586;12.286;2022-07-29T03:14:50;5.63;;;2.13;;
31730;SDS011;18310;55.586;12.286;2022-07-29T03:17:55;4.70;;;1.95;;
31730;SDS011;18310;55.586;12.286;2022-07-29T03:21:00;3.47;;;2.08;;
31730;SDS011;18310;55.586;12.286;2022-07-29T03:24:05;4.25;;;1.88;;
31730;SDS011;18310;55.586;12.286;2022-07-29T03:27:11;6.25;;;2.22;;
31730;SDS011;18310;55.586;12.286;2022-07-29T03:30:14;9.23;;;2.60;;
31730;SDS011;18310;55.586;12.286;2022-07-29T03:33:22;4.65;;;2.03;;
31730;SDS011;18310;55.586;12.286;2022-07-29T03:36:27;4.80;;;2.23;;
31730;SDS011;18310;55.586;12.286;2022-07-29T03:39:31;5.13;;;2.35;;
31730;SDS011;18310;55.586;12.286;2022-07-29T03:42:42;5.68;;;2.28;;
31730;SDS011;18310;55.586;12.286;2022-07-29T03:45:49;5.38;;;2.42;;
31730;SDS011;18310;55.586;12.286;2022-07-29T03:48:58;4.03;;;2.00;;
31730;SDS011;18310;55.586;12.286;2022-07-29T03:52:06;2.85;;;1.60;;
31730;SDS011;18310;55.586;12.286;2022-07-29T03:55:11;5.63;;;2.50;;
31730;SDS011;18310;55.586;12.286;2022-07-29T03:58:15;4.30;;;2.47;;
31730;SDS011;18310;55.586;12.286;2022-07-29T04:01:20;6.00;;;2.50;;
31730;SDS011;18310;55.586;12.286;2022-07-29T04:04:27;3.67;;;1.95;;
31730;SDS011;18310;55.586;12.286;2022-07-29T04:07:31;4.85;;;2.20;;
31730;SDS011;18310;55.586;12.286;2022-07-29T04:10:35;5.65;;;2.60;;
31730;SDS011;18310;55.586;12.286;2022-07-29T04:13:40;7.05;;;2.55;;
31730;SDS011;18310;55.586;12.286;2022-07-29T04:16:43;4.10;;;2.30;;
31730;SDS011;18310;55.586;12.286;2022-07-29T04:19:46;5.97;;;2.57;;
31730;SDS011;18310;55.586;12.286;2022-07-29T04:22:51;5.45;;;2.13;;
31730;SDS011;18310;55.586;12.286;2022-07-29T04:25:54;5.03;;;2.30;;
31730;SDS011;18310;55.586;12.286;2022-07-29T04:28:57;8.82;;;2.83;;
31730;SDS011;18310;55.586;12.286;2022-07-29T04:32:00;6.18;;;2.72;;
31730;SDS011;18310;55.586;12.286;2022-07-29T04:35:04;5.90;;;2.63;;
31730;SDS011;18310;55.586;12.286;2022-07-29T04:38:09;5.20;;;2.63;;
31730;SDS011;18310;55.586;12.286;2022-07-29T04:41:17;5.22;;;2.45;;
31730;SDS011;18310;55.586;12.286;2022-07-29T04:47:29;6.10;;;2.28;;
31730;SDS011;18310;55.586;12.286;2022-07-29T04:50:32;8.27;;;2.33;;
31730;SDS011;18310;55.586;12.286;2022-07-29T04:53:37;4.97;;;2.00;;
31730;SDS011;18310;55.586;12.286;2022-07-29T04:56:40;8.27;;;2.25;;
31730;SDS011;18310;55.586;12.286;2022-07-29T04:59:43;4.72;;;1.90;;
31730;SDS011;18310;55.586;12.286;2022-07-29T05:02:46;4.03;;;1.90;;
31730;SDS011;18310;55.586;12.286;2022-07-29T05:05:50;5.70;;;2.00;;
31730;SDS011;18310;55.586;12.286;2022-07-29T05:08:54;5.78;;;2.03;;
31730;SDS011;18310;55.586;12.286;2022-07-29T05:11:58;7.80;;;2.08;;
31730;SDS011;18310;55.586;12.286;2022-07-29T05:15:01;5.28;;;1.40;;
31730;SDS011;18310;55.586;12.286;2022-07-29T05:18:05;5.32;;;1.80;;
31730;SDS011;18310;55.586;12.286;2022-07-29T05:21:09;3.88;;;1.80;;
31730;SDS011;18310;55.586;12.286;2022-07-29T05:24:14;5.05;;;1.98;;
31730;SDS011;18310;55.586;12.286;2022-07-29T05:27:19;6.28;;;1.83;;
31730;SDS011;18310;55.586;12.286;2022-07-29T05:30:22;7.38;;;1.98;;
31730;SDS011;18310;55.586;12.286;2022-07-29T05:33:26;5.90;;;1.75;;
31730;SDS011;18310;55.586;12.286;2022-07-29T05:36:36;6.28;;;2.05;;
31730;SDS011;18310;55.586;12.286;2022-07-29T05:42:50;4.32;;;1.90;;
31730;SDS011;18310;55.586;12.286;2022-07-29T05:45:54;4.47;;;1.77;;
31730;SDS011;18310;55.586;12.286;2022-07-29T05:52:01;4.00;;;2.00;;
31730;SDS011;18310;55.586;12.286;2022-07-29T05:55:05;4.68;;;2.05;;
31730;SDS011;18310;55.586;12.286;2022-07-29T05:58:10;3.65;;;1.92;;
31730;SDS011;18310;55.586;12.286;2022-07-29T06:01:13;4.95;;;2.28;;
31730;SDS011;18310;55.586;12.286;2022-07-29T06:04:17;5.03;;;2.03;;
31730;SDS011;18310;55.586;12.286;2022-07-29T06:07:21;7.82;;;2.00;;
31730;SDS011;18310;55.586;12.286;2022-07-29T06:10:25;7.07;;;2.00;;
31730;SDS011;18310;55.586;12.286;2022-07-29T06:13:29;7.93;;;2.50;;
31730;SDS011;18310;55.586;12.286;2022-07-29T06:16:34;7.25;;;2.50;;
31730;SDS011;18310;55.586;12.286;2022-07-29T06:19:38;6.68;;;2.10;;
31730;SDS011;18310;55.586;12.286;2022-07-29T06:22:41;10.77;;;2.15;;
31730;SDS011;18310;55.586;12.286;2022-07-29T06:25:46;6.35;;;2.33;;
31730;SDS011;18310;55.586;12.286;2022-07-29T06:28:49;4.93;;;2.40;;
31730;SDS011;18310;55.586;12.286;2022-07-29T06:31:52;6.22;;;2.75;;
31730;SDS011;18310;55.586;12.286;2022-07-29T06:34:56;6.70;;;2.80;;
31730;SDS011;18310;55.586;12.286;2022-07-29T06:38:19;5.47;;;1.92;;
31730;SDS011;18310;55.586;12.286;2022-07-29T06:41:33;5.35;;;2.15;;
31730;SDS011;18310;55.586;12.286;2022-07-29T06:44:37;4.75;;;1.90;;
31730;SDS011;18310;55.586;12.286;2022-07-29T06:47:40;6.15;;;2.10;;
31730;SDS011;18310;55.586;12.286;2022-07-29T06:50:44;8.48;;;1.98;;
31730;SDS011;18310;55.586;12.286;2022-07-29T06:53:47;7.90;;;1.90;;
31730;SDS011;18310;55.586;12.286;2022-07-29T06:57:04;2.78;;;1.50;;
31730;SDS011;18310;55.586;12.286;2022-07-29T07:00:08;4.13;;;1.80;;
31730;SDS011;18310;55.586;12.286;2022-07-29T07:03:13;3.70;;;1.70;;
31730;SDS011;18310;55.586;12.286;2022-07-29T07:06:16;6.50;;;2.30;;
31730;SDS011;18310;55.586;12.286;2022-07-29T07:09:19;4.28;;;1.98;;
31730;SDS011;18310;55.586;12.286;2022-07-29T07:12:24;4.05;;;2.25;;
31730;SDS011;18310;55.586;12.286;2022-07-29T07:15:27;5.82;;;1.73;;
31730;SDS011;18310;55.586;12.286;2022-07-29T07:18:40;6.47;;;2.40;;
31730;SDS011;18310;55.586;12.286;2022-07-29T07:21:43;5.30;;;2.17;;
31730;SDS011;18310;55.586;12.286;2022-07-29T07:24:46;6.30;;;2.28;;
31730;SDS011;18310;55.586;12.286;2022-07-29T07:27:51;4.75;;;1.85;;
31730;SDS011;18310;55.586;12.286;2022-07-29T07:30:54;4.55;;;2.00;;
31730;SDS011;18310;55.586;12.286;2022-07-29T07:33:58;4.93;;;2.00;;
31730;SDS011;18310;55.586;12.286;2022-07-29T07:37:01;4.22;;;2.35;;
31730;SDS011;18310;55.586;12.286;2022-07-29T07:40:04;4.75;;;2.30;;
31730;SDS011;18310;55.586;12.286;2022-07-29T07:43:10;3.60;;;1.70;;
31730;SDS011;18310;55.586;12.286;2022-07-29T07:46:13;4.57;;;2.22;;
31730;SDS011;18310;55.586;12.286;2022-07-29T07:52:21;4.15;;;2.15;;
31730;SDS011;18310;55.586;12.286;2022-07-29T07:58:30;7.67;;;1.90;;
31730;SDS011;18310;55.586;12.286;2022-07-29T08:01:33;3.45;;;1.98;;
31730;SDS011;18310;55.586;12.286;2022-07-29T08:04:56;8.73;;;2.50;;
31730;SDS011;18310;55.586;12.286;2022-07-29T08:08:00;8.82;;;2.25;;
31730;SDS011;18310;55.586;12.286;2022-07-29T08:11:03;5.23;;;1.93;;
31730;SDS011;18310;55.586;12.286;2022-07-29T08:14:11;4.55;;;2.10;;
31730;SDS011;18310;55.586;12.286;2022-07-29T08:17:15;4.10;;;1.92;;
31730;SDS011;18310;55.586;12.286;2022-07-29T08:20:18;6.87;;;2.30;;
31730;SDS011;18310;55.586;12.286;2022-07-29T08:23:22;7.28;;;2.20;;
31730;SDS011;18310;55.586;12.286;2022-07-29T08:26:25;5.60;;;2.03;;
31730;SDS011;18310;55.586;12.286;2022-07-29T08:29:30;8.40;;;1.90;;
31730;SDS011;18310;55.586;12.286;2022-07-29T08:32:34;6.07;;;1.92;;
31730;SDS011;18310;55.586;12.286;2022-07-29T08:35:54;4.55;;;1.90;;
31730;SDS011;18310;55.586;12.286;2022-07-29T08:38:58;9.10;;;2.47;;
31730;SDS011;18310;55.586;12.286;2022-07-29T08:42:02;9.70;;;2.15;;
31730;SDS011;18310;55.586;12.286;2022-07-29T08:45:08;7.15;;;2.38;;
31730;SDS011;18310;55.586;12.286;2022-07-29T08:48:12;5.55;;;2.47;;
31730;SDS011;18310;55.586;12.286;2022-07-29T08:51:18;5.93;;;2.00;;
31730;SDS011;18310;55.586;12.286;2022-07-29T08:54:22;5.38;;;1.88;;
31730;SDS011;18310;55.586;12.286;2022-07-29T08:57:28;4.55;;;1.80;;
31730;SDS011;18310;55.586;12.286;2022-07-29T09:00:35;5.10;;;1.95;;
31730;SDS011;18310;55.586;12.286;2022-07-29T09:03:45;6.60;;;1.80;;
31730;SDS011;18310;55.586;12.286;2022-07-29T09:06:50;5.45;;;1.88;;
31730;SDS011;18310;55.586;12.286;2022-07-29T09:10:01;5.88;;;1.73;;
31730;SDS011;18310;55.586;12.286;2022-07-29T09:13:06;7.38;;;1.73;;
31730;SDS011;18310;55.586;12.286;2022-07-29T09:16:11;5.90;;;2.57;;
31730;SDS011;18310;55.586;12.286;2022-07-29T09:19:35;4.55;;;1.60;;
31730;SDS011;18310;55.586;12.286;2022-07-29T09:22:45;7.93;;;2.00;;
31730;SDS011;18310;55.586;12.286;2022-07-29T09:25:50;4.55;;;2.00;;
31730;SDS011;18310;55.586;12.286;2022-07-29T09:28:53;8.30;;;2.30;;
31730;SDS011;18310;55.586;12.286;2022-07-29T09:31:58;4.67;;;1.80;;
31730;SDS011;18310;55.586;12.286;2022-07-29T09:35:14;9.40;;;1.95;;
31730;SDS011;18310;55.586;12.286;2022-07-29T09:38:23;5.53;;;2.22;;
31730;SDS011;18310;55.586;12.286;2022-07-29T09:41:27;6.88;;;1.77;;
31730;SDS011;18310;55.586;12.286;2022-07-29T09:44:40;5.25;;;2.15;;
31730;SDS011;18310;55.586;12.286;2022-07-29T09:47:47;4.20;;;1.88;;
31730;SDS011;18310;55.586;12.286;2022-07-29T09:50:51;6.10;;;2.13;;
31730;SDS011;18310;55.586;12.286;2022-07-29T09:53:55;8.43;;;1.65;;
31730;SDS011;18310;55.586;12.286;2022-07-29T09:56:58;5.65;;;1.98;;
31730;SDS011;18310;55.586;12.286;2022-07-29T10:00:03;6.30;;;1.90;;
31730;SDS011;18310;55.586;12.286;2022-07-29T10:03:11;6.95;;;1.70;;
31730;SDS011;18310;55.586;12.286;2022-07-29T10:06:15;4.72;;;1.90;;
31730;SDS011;18310;55.586;12.286;2022-07-29T10:09:19;6.30;;;2.30;;
31730;SDS011;18310;55.586;12.286;2022-07-29T10:12:22;4.20;;;1.65;;
31730;SDS011;18310;55.586;12.286;2022-07-29T10:15:27;5.55;;;1.60;;
31730;SDS011;18310;55.586;12.286;2022-07-29T10:18:35;4.63;;;2.05;;
31730;SDS011;18310;55.586;12.286;2022-07-29T10:21:41;5.03;;;1.63;;
31730;SDS011;18310;55.586;12.286;2022-07-29T10:24:46;4.90;;;1.67;;
31730;SDS011;18310;55.586;12.286;2022-07-29T10:27:49;4.95;;;1.70;;
31730;SDS011;18310;55.586;12.286;2022-07-29T10:34:07;3.35;;;1.25;;
31730;SDS011;18310;55.586;12.286;2022-07-29T10:37:26;7.70;;;1.70;;
31730;SDS011;18310;55.586;12.286;2022-07-29T10:40:49;4.90;;;1.65;;
31730;SDS011;18310;55.586;12.286;2022-07-29T10:44:24;8.70;;;1.50;;
31730;SDS011;18310;55.586;12.286;2022-07-29T10:47:29;5.43;;;1.13;;
31730;SDS011;18310;55.586;12.286;2022-07-29T10:50:56;5.38;;;1.52;;
31730;SDS011;18310;55.586;12.286;2022-07-29T10:54:04;4.45;;;1.35;;
31730;SDS011;18310;55.586;12.286;2022-07-29T10:57:11;2.97;;;1.02;;
31730;SDS011;18310;55.586;12.286;2022-07-29T11:00:31;4.37;;;1.27;;
31730;SDS011;18310;55.586;12.286;2022-07-29T11:03:45;5.30;;;1.20;;
31730;SDS011;18310;55.586;12.286;2022-07-29T11:07:07;4.68;;;1.25;;
31730;SDS011;18310;55.586;12.286;2022-07-29T11:10:24;3.30;;;1.45;;
31730;SDS011;18310;55.586;12.286;2022-07-29T11:13:45;4.55;;;1.20;;
31730;SDS011;18310;55.586;12.286;2022-07-29T11:17:00;4.80;;;1.15;;
31730;SDS011;18310;55.586;12.286;2022-07-29T11:23:42;11.68;;;1.17;;
31730;SDS011;18310;55.586;12.286;2022-07-29T11:26:45;3.35;;;1.00;;
31730;SDS011;18310;55.586;12.286;2022-07-29T11:33:34;3.67;;;0.90;;
31730;SDS011;18310;55.586;12.286;2022-07-29T11:47:58;7.20;;;1.00;;
31730;SDS011;18310;55.586;12.286;2022-07-29T11:51:22;2.88;;;0.85;;
31730;SDS011;18310;55.586;12.286;2022-07-29T11:54:34;3.92;;;1.13;;
31730;SDS011;18310;55.586;12.286;2022-07-29T11:57:59;3.47;;;1.00;;
31730;SDS011;18310;55.586;12.286;2022-07-29T12:01:04;3.60;;;1.20;;
31730;SDS011;18310;55.586;12.286;2022-07-29T12:07:13;2.55;;;0.95;;
31730;SDS011;18310;55.586;12.286;2022-07-29T12:10:17;3.13;;;1.05;;
31730;SDS011;18310;55.586;12.286;2022-07-29T12:13:32;3.95;;;1.30;;
31730;SDS011;18310;55.586;12.286;2022-07-29T12:16:41;5.22;;;0.90;;
31730;SDS011;18310;55.586;12.286;2022-07-29T12:19:45;4.38;;;1.20;;
31730;SDS011;18310;55.586;12.286;2022-07-29T12:22:51;6.53;;;1.15;;
31730;SDS011;18310;55.586;12.286;2022-07-29T12:25:57;3.50;;;1.05;;
31730;SDS011;18310;55.586;12.286;2022-07-29T12:29:03;4.10;;;1.10;;
31730;SDS011;18310;55.586;12.286;2022-07-29T12:32:15;4.40;;;1.10;;
31730;SDS011;18310;55.586;12.286;2022-07-29T12:35:20;3.13;;;0.98;;
31730;SDS011;18310;55.586;12.286;2022-07-29T12:38:24;3.55;;;1.08;;
31730;SDS011;18310;55.586;12.286;2022-07-29T12:41:27;2.92;;;0.98;;
31730;SDS011;18310;55.586;12.286;2022-07-29T12:44:48;2.95;;;1.00;;
31730;SDS011;18310;55.586;12.286;2022-07-29T12:47:52;7.88;;;1.55;;
31730;SDS011;18310;55.586;12.286;2022-07-29T12:50:57;3.13;;;1.00;;
31730;SDS011;18310;55.586;12.286;2022-07-29T12:54:03;4.22;;;1.05;;
31730;SDS011;18310;55.586;12.286;2022-07-29T12:57:11;4.85;;;1.13;;
31730;SDS011;18310;55.586;12.286;2022-07-29T13:00:23;6.22;;;1.48;;
31730;SDS011;18310;55.586;12.286;2022-07-29T13:03:26;7.05;;;1.23;;
31730;SDS011;18310;55.586;12.286;2022-07-29T13:06:36;8.63;;;1.20;;
31730;SDS011;18310;55.586;12.286;2022-07-29T13:09:46;5.10;;;1.48;;
31730;SDS011;18310;55.586;12.286;2022-07-29T13:13:02;5.85;;;1.38;;
31730;SDS011;18310;55.586;12.286;2022-07-29T13:16:12;5.03;;;1.40;;
31730;SDS011;18310;55.586;12.286;2022-07-29T13:19:15;5.97;;;1.67;;
31730;SDS011;18310;55.586;12.286;2022-07-29T13:22:20;6.57;;;1.70;;
31730;SDS011;18310;55.586;12.286;2022-07-29T13:25:27;5.22;;;1.38;;
31730;SDS011;18310;55.586;12.286;2022-07-29T13:28:33;5.00;;;1.58;;
31730;SDS011;18310;55.586;12.286;2022-07-29T13:31:37;3.15;;;1.15;;
31730;SDS011;18310;55.586;12.286;2022-07-29T13:34:41;6.05;;;1.23;;
31730;SDS011;18310;55.586;12.286;2022-07-29T13:37:44;8.47;;;1.83;;
31730;SDS011;18310;55.586;12.286;2022-07-29T13:40:47;4.85;;;1.60;;
31730;SDS011;18310;55.586;12.286;2022-07-29T13:43:51;5.30;;;1.63;;
31730;SDS011;18310;55.586;12.286;2022-07-29T13:46:55;4.07;;;1.40;;
31730;SDS011;18310;55.586;12.286;2022-07-29T13:50:00;3.00;;;1.20;;
31730;SDS011;18310;55.586;12.286;2022-07-29T13:53:05;4.95;;;1.23;;
31730;SDS011;18310;55.586;12.286;2022-07-29T13:56:08;4.80;;;1.10;;
31730;SDS011;18310;55.586;12.286;2022-07-29T13:59:12;6.07;;;1.50;;
31730;SDS011;18310;55.586;12.286;2022-07-29T14:02:16;5.75;;;1.10;;
31730;SDS011;18310;55.586;12.286;2022-07-29T14:05:20;3.70;;;1.38;;
31730;SDS011;18310;55.586;12.286;2022-07-29T14:08:23;3.93;;;1.20;;
31730;SDS011;18310;55.586;12.286;2022-07-29T14:11:26;3.33;;;1.10;;
31730;SDS011;18310;55.586;12.286;2022-07-29T14:14:29;7.20;;;1.10;;
31730;SDS011;18310;55.586;12.286;2022-07-29T14:17:35;5.18;;;1.40;;
31730;SDS011;18310;55.586;12.286;2022-07-29T14:20:38;5.47;;;1.20;;
31730;SDS011;18310;55.586;12.286;2022-07-29T14:23:42;5.68;;;1.27;;
31730;SDS011;18310;55.586;12.286;2022-07-29T14:26:47;4.03;;;1.52;;
31730;SDS011;18310;55.586;12.286;2022-07-29T14:29:51;5.03;;;1.27;;
31730;SDS011;18310;55.586;12.286;2022-07-29T14:32:55;5.20;;;1.70;;
31730;SDS011;18310;55.586;12.286;2022-07-29T14:35:58;4.03;;;1.20;;
31730;SDS011;18310;55.586;12.286;2022-07-29T14:39:02;5.20;;;1.10;;
31730;SDS011;18310;55.586;12.286;2022-07-29T14:42:05;2.92;;;1.20;;
31730;SDS011;18310;55.586;12.286;2022-07-29T14:45:09;3.97;;;1.30;;
31730;SDS011;18310;55.586;12.286;2022-07-29T14:48:14;7.05;;;1.10;;
31730;SDS011;18310;55.586;12.286;2022-07-29T14:51:17;4.15;;;0.93;;
31730;SDS011;18310;55.586;12.286;2022-07-29T14:54:20;2.75;;;1.00;;
31730;SDS011;18310;55.586;12.286;2022-07-29T14:57:24;4.00;;;1.45;;
31730;SDS011;18310;55.586;12.286;2022-07-29T15:00:27;2.50;;;1.10;;
31730;SDS011;18310;55.586;12.286;2022-07-29T15:03:34;3.85;;;1.58;;
31730;SDS011;18310;55.586;12.286;2022-07-29T15:06:38;5.82;;;1.58;;
31730;SDS011;18310;55.586;12.286;2022-07-29T15:09:41;4.07;;;1.20;;
31730;SDS011;18310;55.586;12.286;2022-07-29T15:12:50;8.02;;;1.45;;
31730;SDS011;18310;55.586;12.286;2022-07-29T15:15:53;4.07;;;1.65;;
31730;SDS011;18310;55.586;12.286;2022-07-29T15:19:01;4.78;;;1.42;;
31730;SDS011;18310;55.586;12.286;2022-07-29T15:22:05;3.60;;;1.13;;
31730;SDS011;18310;55.586;12.286;2022-07-29T15:25:08;5.60;;;1.30;;
31730;SDS011;18310;55.586;12.286;2022-07-29T15:28:12;4.78;;;1.42;;
31730;SDS011;18310;55.586;12.286;2022-07-29T15:31:16;4.72;;;1.13;;
31730;SDS011;18310;55.586;12.286;2022-07-29T15:34:21;2.85;;;1.13;;
31730;SDS011;18310;55.586;12.286;2022-07-29T15:37:25;4.30;;;1.10;;
31730;SDS011;18310;55.586;12.286;2022-07-29T15:40:49;5.17;;;1.30;;
31730;SDS011;18310;55.586;12.286;2022-07-29T15:43:52;4.40;;;0.87;;
31730;SDS011;18310;55.586;12.286;2022-07-29T15:46:55;7.73;;;1.23;;
31730;SDS011;18310;55.586;12.286;2022-07-29T15:50:06;3.80;;;0.95;;
31730;SDS011;18310;55.586;12.286;2022-07-29T15:53:15;4.40;;;1.10;;
31730;SDS011;18310;55.586;12.286;2022-07-29T15:56:19;4.27;;;1.10;;
31730;SDS011;18310;55.586;12.286;2022-07-29T15:59:22;4.38;;;1.23;;
31730;SDS011;18310;55.586;12.286;2022-07-29T16:05:31;4.75;;;1.00;;
31730;SDS011;18310;55.586;12.286;2022-07-29T16:08:34;4.60;;;1.33;;
31730;SDS011;18310;55.586;12.286;2022-07-29T16:11:37;4.60;;;0.93;;
31730;SDS011;18310;55.586;12.286;2022-07-29T16:14:41;3.92;;;0.95;;
31730;SDS011;18310;55.586;12.286;2022-07-29T16:17:44;6.53;;;1.15;;
31730;SDS011;18310;55.586;12.286;2022-07-29T16:20:49;4.07;;;1.43;;
31730;SDS011;18310;55.586;12.286;2022-07-29T16:23:52;5.60;;;1.38;;
31730;SDS011;18310;55.586;12.286;2022-07-29T16:26:55;5.37;;;1.53;;
31730;SDS011;18310;55.586;12.286;2022-07-29T16:33:03;4.45;;;1.10;;
31730;SDS011;18310;55.586;12.286;2022-07-29T16:36:10;7.30;;;1.30;;
31730;SDS011;18310;55.586;12.286;2022-07-29T16:39:18;9.13;;;1.38;;
31730;SDS011;18310;55.586;12.286;2022-07-29T16:42:21;5.33;;;1.37;;
31730;SDS011;18310;55.586;12.286;2022-07-29T16:45:45;3.42;;;1.17;;
31730;SDS011;18310;55.586;12.286;2022-07-29T16:48:50;3.40;;;1.20;;
31730;SDS011;18310;55.586;12.286;2022-07-29T16:51:55;3.13;;;0.70;;
31730;SDS011;18310;55.586;12.286;2022-07-29T16:54:59;5.90;;;1.00;;
31730;SDS011;18310;55.586;12.286;2022-07-29T16:58:03;9.80;;;1.63;;
31730;SDS011;18310;55.586;12.286;2022-07-29T17:01:06;6.38;;;1.27;;
31730;SDS011;18310;55.586;12.286;2022-07-29T17:04:10;2.70;;;1.02;;
31730;SDS011;18310;55.586;12.286;2022-07-29T17:07:16;6.28;;;1.40;;
31730;SDS011;18310;55.586;12.286;2022-07-29T17:10:20;4.45;;;1.38;;
31730;SDS011;18310;55.586;12.286;2022-07-29T17:13:27;6.53;;;1.58;;
31730;SDS011;18310;55.586;12.286;2022-07-29T17:16:31;7.13;;;1.30;;
31730;SDS011;18310;55.586;12.286;2022-07-29T17:19:34;3.40;;;1.23;;
31730;SDS011;18310;55.586;12.286;2022-07-29T17:22:39;4.20;;;1.40;;
31730;SDS011;18310;55.586;12.286;2022-07-29T17:25:43;5.25;;;1.35;;
31730;SDS011;18310;55.586;12.286;2022-07-29T17:28:46;2.77;;;1.00;;
31730;SDS011;18310;55.586;12.286;2022-07-29T17:31:49;2.35;;;1.00;;
31730;SDS011;18310;55.586;12.286;2022-07-29T17:34:53;3.25;;;1.17;;
31730;SDS011;18310;55.586;12.286;2022-07-29T17:37:58;4.28;;;1.00;;
31730;SDS011;18310;55.586;12.286;2022-07-29T17:41:01;4.60;;;1.10;;
31730;SDS011;18310;55.586;12.286;2022-07-29T17:44:09;4.82;;;1.27;;
31730;SDS011;18310;55.586;12.286;2022-07-29T17:47:13;4.80;;;1.27;;
31730;SDS011;18310;55.586;12.286;2022-07-29T17:50:17;3.75;;;1.48;;
31730;SDS011;18310;55.586;12.286;2022-07-29T17:53:21;5.63;;;1.10;;
31730;SDS011;18310;55.586;12.286;2022-07-29T17:56:24;7.35;;;1.35;;
31730;SDS011;18310;55.586;12.286;2022-07-29T17:59:28;3.88;;;1.20;;
31730;SDS011;18310;55.586;12.286;2022-07-29T18:02:31;2.67;;;1.03;;
31730;SDS011;18310;55.586;12.286;2022-07-29T18:05:35;5.22;;;0.95;;
31730;SDS011;18310;55.586;12.286;2022-07-29T18:08:39;3.20;;;0.80;;
31730;SDS011;18310;55.586;12.286;2022-07-29T18:11:42;4.57;;;1.45;;
31730;SDS011;18310;55.586;12.286;2022-07-29T18:14:46;4.47;;;1.17;;
31730;SDS011;18310;55.586;12.286;2022-07-29T18:17:49;4.37;;;1.20;;
31730;SDS011;18310;55.586;12.286;2022-07-29T18:20:58;3.45;;;1.75;;
31730;SDS011;18310;55.586;12.286;2022-07-29T18:24:02;4.60;;;1.30;;
31730;SDS011;18310;55.586;12.286;2022-07-29T18:27:06;6.03;;;1.25;;
31730;SDS011;18310;55.586;12.286;2022-07-29T18:30:09;4.70;;;1.15;;
31730;SDS011;18310;55.586;12.286;2022-07-29T18:33:15;4.05;;;1.17;;
31730;SDS011;18310;55.586;12.286;2022-07-29T18:36:22;4.90;;;1.38;;
31730;SDS011;18310;55.586;12.286;2022-07-29T18:39:27;4.00;;;1.10;;
31730;SDS011;18310;55.586;12.286;2022-07-29T18:42:30;4.68;;;1.30;;
31730;SDS011;18310;55.586;12.286;2022-07-29T18:45:34;4.40;;;1.20;;
31730;SDS011;18310;55.586;12.286;2022-07-29T18:48:40;5.70;;;1.27;;
31730;SDS011;18310;55.586;12.286;2022-07-29T18:51:43;6.97;;;1.58;;
31730;SDS011;18310;55.586;12.286;2022-07-29T18:54:48;2.83;;;1.05;;
31730;SDS011;18310;55.586;12.286;2022-07-29T18:57:52;4.03;;;1.10;;
31730;SDS011;18310;55.586;12.286;2022-07-29T19:00:57;4.75;;;1.35;;
31730;SDS011;18310;55.586;12.286;2022-07-29T19:04:02;7.40;;;1.20;;
31730;SDS011;18310;55.586;12.286;2022-07-29T19:07:06;3.90;;;1.02;;
31730;SDS011;18310;55.586;12.286;2022-07-29T19:10:11;2.80;;;0.95;;
31730;SDS011;18310;55.586;12.286;2022-07-29T19:13:14;3.58;;;0.90;;
31730;SDS011;18310;55.586;12.286;2022-07-29T19:16:17;4.27;;;1.20;;